Hauptseite
METAR-TAF:

METAR-TAF

Flughäfen :

Flughafen Perugia

Perugia, Italien

Breite: 43-05N, Länge: 012-30E, Höhe: 208 m

Beobachtung

Neuester Wetterbericht von vor 24 Minuten, um 05:00 UTC
Wind 2 kt aus Nord/Nordwest
Temperatur 14°C
Luftfeuchtigkeit 88%
Luftdruck 1013 hPa
Sichtweite 10 km oder mehr
Durchbrochene Bewölkung in der Höhe von 7000 ft

METAR: LIRZ 210500Z 33002KT 9999 BKN070 14/12 Q1013

Zeit: 07:24 (05:24 UTC)

Prognose

Neuester Wetterbericht von vor 12 Stunden und 24 Minuten, um 17:00 UTC
Gültige Prognose vom 20 um 18 UTC bis 21 um 18 UTC
Wind 7 kt aus Nord/Nordost
Sichtweite 10 km oder mehr
Aufgelockert bewölkt in der Höhe von 3000 ft
Zeitweise
vom 21 um 11 UTC bis 21 um 18 UTC
Sichtweite: 4000 m
Gewitter, Regen

TAF: LIRZ 201700Z 2018/2118 02007KT 9999 SCT030 TEMPO 2111/2118 4000 TSRA

Wetterbeobachtungen und Prognosen von mehr als 4000 Flughäfen (METAR und TAF Bericht).

Die verfügbaren Stationen werden durch gelbe und rote Markierungen auf der Karte dargestellt.

Führen Sie die Maus auf sie, um den Namen der Station zu sehen.

Darauf klicken, um die Beobachtung von Wetterbeobachtungen und Prognosen zu sehen.

Um die Karte zu ändern : klicken Sie auf den grünen Tasten mit einem schwarzen Kreuz Zum Vergrößern, auf den grünen Button mit einem Gedankenstrich zu verkleinern, oder auf die grünen Pfeile für benachbarte Karten.


METAR-TAF: